createdAt,value
2023-04-18T00:00:37.725Z,33.33
2023-04-18T00:01:37.791Z,33.35
2023-04-18T00:02:37.990Z,33.35
2023-04-18T00:03:38.144Z,33.35
2023-04-18T00:04:37.970Z,33.32
2023-04-18T00:05:37.964Z,33.36
2023-04-18T00:06:37.964Z,33.36
2023-04-18T00:07:38.034Z,33.35
2023-04-18T00:08:38.073Z,33.33
2023-04-18T00:09:38.157Z,33.38
2023-04-18T00:10:38.158Z,33.36
2023-04-18T00:11:38.190Z,33.30
2023-04-18T00:12:38.196Z,33.32
2023-04-18T00:13:38.238Z,33.35
2023-04-18T00:14:38.289Z,33.33
2023-04-18T00:15:38.330Z,33.33
2023-04-18T00:16:38.443Z,33.31
2023-04-18T00:17:38.538Z,33.27
2023-04-18T00:18:38.484Z,33.33
2023-04-18T00:19:38.563Z,33.31
2023-04-18T00:20:38.582Z,33.31
2023-04-18T00:21:38.617Z,33.31
2023-04-18T00:22:38.660Z,33.30
2023-04-18T00:23:38.715Z,33.29
2023-04-18T00:24:38.767Z,33.31
2023-04-18T00:25:38.807Z,33.30
2023-04-18T00:26:38.828Z,33.30
2023-04-18T00:27:38.878Z,33.28
2023-04-18T00:28:38.948Z,33.31
2023-04-18T00:29:38.987Z,33.30
2023-04-18T00:30:39.041Z,33.28
2023-04-18T00:31:39.027Z,33.27
2023-04-18T00:32:39.127Z,33.27
2023-04-18T00:33:39.128Z,33.25
2023-04-18T00:34:39.160Z,33.31
2023-04-18T00:35:39.229Z,33.25
2023-04-18T00:36:39.393Z,33.25
2023-04-18T00:37:39.327Z,33.29
2023-04-18T00:38:39.385Z,33.26
2023-04-18T00:39:39.436Z,33.25
2023-04-18T00:40:39.474Z,33.28
2023-04-18T00:41:39.491Z,33.25
2023-04-18T00:42:39.556Z,33.16
2023-04-18T00:43:39.623Z,33.24
2023-04-18T00:44:39.643Z,33.30
2023-04-18T00:45:39.673Z,33.25
2023-04-18T00:46:39.739Z,33.21
2023-04-18T00:47:39.736Z,33.22
2023-04-18T00:48:39.784Z,33.26
2023-04-18T00:49:39.824Z,33.24
2023-04-18T00:50:39.862Z,33.18
2023-04-18T00:51:39.932Z,33.24
2023-04-18T00:52:40.125Z,33.22
2023-04-18T00:53:40.053Z,33.25
2023-04-18T00:54:40.137Z,33.29
2023-04-18T00:55:40.209Z,33.26
2023-04-18T00:56:40.253Z,33.24
2023-04-18T00:57:40.305Z,33.19
2023-04-18T00:58:40.362Z,33.19
2023-04-18T00:59:40.418Z,33.24
2023-04-18T01:00:40.478Z,33.15
2023-04-18T01:01:40.541Z,33.16
2023-04-18T01:02:40.614Z,33.18
2023-04-18T01:03:40.767Z,33.26
2023-04-18T01:04:40.663Z,33.21
2023-04-18T01:05:40.623Z,33.18
2023-04-18T01:06:40.690Z,33.29
2023-04-18T01:07:40.720Z,33.18
2023-04-18T01:08:40.711Z,33.22
2023-04-18T01:09:40.766Z,33.19
2023-04-18T01:10:40.777Z,33.25
2023-04-18T01:11:40.813Z,33.22
2023-04-18T01:12:40.849Z,33.18
2023-04-18T01:13:40.880Z,33.21
2023-04-18T01:14:40.925Z,33.21
2023-04-18T01:15:41.036Z,33.16
2023-04-18T01:16:41.060Z,33.19
2023-04-18T01:17:41.159Z,33.18
2023-04-18T01:18:41.174Z,33.16
2023-04-18T01:19:41.223Z,33.21
2023-04-18T01:20:41.280Z,33.18
2023-04-18T01:21:41.311Z,33.19
2023-04-18T01:22:41.354Z,33.15
2023-04-18T01:23:41.418Z,33.19
2023-04-18T01:24:41.470Z,33.18
2023-04-18T01:25:41.521Z,33.10
2023-04-18T01:26:41.584Z,33.19
2023-04-18T01:27:41.639Z,33.15
2023-04-18T01:28:41.692Z,33.16
2023-04-18T01:29:41.759Z,33.10
2023-04-18T01:30:41.849Z,33.12
2023-04-18T01:31:42.002Z,33.18
2023-04-18T01:32:42.033Z,33.10
2023-04-18T01:33:42.011Z,33.13
2023-04-18T01:34:42.076Z,33.15
2023-04-18T01:35:42.110Z,33.13
2023-04-18T01:36:42.122Z,33.15
2023-04-18T01:37:42.150Z,33.13
2023-04-18T01:38:42.169Z,33.15
2023-04-18T01:39:42.200Z,33.16
2023-04-18T01:40:42.238Z,33.18
2023-04-18T01:41:42.271Z,33.13
2023-04-18T01:42:42.306Z,33.13
2023-04-18T01:43:42.332Z,33.15
2023-04-18T01:44:42.354Z,33.12
2023-04-18T01:45:42.392Z,33.10
2023-04-18T01:46:42.527Z,33.13
2023-04-18T01:47:42.529Z,33.04
2023-04-18T01:48:42.551Z,33.13
2023-04-18T01:49:42.584Z,33.15
2023-04-18T01:50:42.618Z,33.10
2023-04-18T01:51:42.665Z,33.07
2023-04-18T01:52:42.743Z,33.13
2023-04-18T01:53:42.756Z,33.10
2023-04-18T01:54:42.820Z,33.12
2023-04-18T01:55:42.870Z,33.07
2023-04-18T01:56:42.933Z,33.13
2023-04-18T01:57:42.974Z,33.13
2023-04-18T01:58:43.025Z,33.06
2023-04-18T01:59:43.071Z,33.07
2023-04-18T02:00:43.141Z,33.06
2023-04-18T02:01:43.247Z,33.06
2023-04-18T02:02:43.437Z,33.07
2023-04-18T02:03:43.554Z,33.09
2023-04-18T02:04:43.396Z,33.12
2023-04-18T02:05:43.427Z,33.06
2023-04-18T02:06:43.468Z,33.10
2023-04-18T02:07:43.495Z,33.07
2023-04-18T02:08:43.525Z,33.10
2023-04-18T02:09:43.618Z,33.12
2023-04-18T02:10:43.644Z,33.07
2023-04-18T02:11:43.697Z,33.06
2023-04-18T02:12:43.755Z,33.09
2023-04-18T02:13:43.829Z,33.04
2023-04-18T02:14:43.892Z,33.01
2023-04-18T02:15:43.979Z,33.06
2023-04-18T02:16:44.084Z,33.07
2023-04-18T02:17:44.181Z,33.06
2023-04-18T02:18:44.160Z,33.07
2023-04-18T02:19:44.194Z,33.09
2023-04-18T02:20:44.232Z,33.03
2023-04-18T02:21:44.270Z,33.04
2023-04-18T02:22:44.335Z,33.09
2023-04-18T02:23:44.390Z,33.01
2023-04-18T02:24:44.436Z,33.06
2023-04-18T02:25:44.476Z,33.01
2023-04-18T02:26:44.523Z,33.06
2023-04-18T02:27:44.569Z,33.03
2023-04-18T02:28:44.688Z,33.01
2023-04-18T02:29:44.663Z,33.04
2023-04-18T02:30:44.742Z,33.04
2023-04-18T02:31:44.782Z,33.07
2023-04-18T02:32:44.818Z,33.04
2023-04-18T02:33:44.835Z,33.09
2023-04-18T02:34:44.876Z,33.03
2023-04-18T02:35:44.919Z,33.04
2023-04-18T02:36:44.961Z,33.09
2023-04-18T02:37:45.001Z,33.03
2023-04-18T02:38:45.025Z,33.09
2023-04-18T02:39:45.067Z,33.06
2023-04-18T02:40:45.108Z,33.03
2023-04-18T02:41:45.178Z,33.04
2023-04-18T02:42:45.224Z,33.00
2023-04-18T02:43:45.275Z,33.03
2023-04-18T02:44:45.304Z,32.95
2023-04-18T02:45:45.344Z,33.06
2023-04-18T02:46:45.364Z,33.03
2023-04-18T02:47:54.434Z,33.02
2023-04-18T02:48:46.374Z,33.01
2023-04-18T02:49:45.379Z,33.00
2023-04-18T02:50:45.376Z,33.03
2023-04-18T02:51:45.381Z,33.00
2023-04-18T02:52:45.453Z,33.01
2023-04-18T02:53:45.397Z,33.04
2023-04-18T02:54:45.403Z,33.01
2023-04-18T02:55:45.420Z,33.00
2023-04-18T02:56:45.425Z,32.97
2023-04-18T02:57:45.443Z,33.07
2023-04-18T02:58:45.431Z,32.98
2023-04-18T02:59:45.448Z,33.00
2023-04-18T03:00:45.469Z,32.98
2023-04-18T03:01:45.695Z,32.99
2023-04-18T03:02:45.622Z,32.92
2023-04-18T03:03:45.618Z,32.96
2023-04-18T03:04:45.707Z,32.95
2023-04-18T03:05:45.717Z,33.00
2023-04-18T03:06:45.783Z,32.98
2023-04-18T03:07:45.825Z,32.95
2023-04-18T03:08:45.884Z,32.97
2023-04-18T03:09:45.943Z,32.91
2023-04-18T03:10:46.001Z,32.98
2023-04-18T03:11:46.073Z,32.97
2023-04-18T03:12:46.142Z,32.93
2023-04-18T03:13:46.213Z,32.96
2023-04-18T03:14:46.250Z,32.94
2023-04-18T03:15:46.345Z,32.93
2023-04-18T03:16:46.433Z,32.91
2023-04-18T03:17:46.433Z,32.93
2023-04-18T03:18:46.482Z,32.90
2023-04-18T03:19:46.579Z,32.96
2023-04-18T03:20:46.572Z,32.91
2023-04-18T03:21:46.641Z,32.90
2023-04-18T03:22:46.676Z,32.90
2023-04-18T03:23:46.718Z,32.93
2023-04-18T03:24:46.784Z,32.87
2023-04-18T03:25:46.848Z,32.90
2023-04-18T03:26:46.928Z,32.93
2023-04-18T03:27:47.007Z,32.93
2023-04-18T03:28:47.076Z,32.90
2023-04-18T03:29:47.152Z,32.90
2023-04-18T03:30:47.234Z,32.84
2023-04-18T03:31:47.361Z,32.84
2023-04-18T03:32:47.407Z,32.88
2023-04-18T03:33:47.460Z,32.84
2023-04-18T03:34:47.531Z,32.86
2023-04-18T03:35:47.607Z,32.87
2023-04-18T03:36:48.321Z,32.84
2023-04-18T03:37:47.748Z,32.84
2023-04-18T03:38:47.855Z,32.82
2023-04-18T03:39:47.887Z,32.82
2023-04-18T03:40:47.962Z,32.82
2023-04-18T03:41:48.031Z,32.82
2023-04-18T03:42:48.125Z,32.78
2023-04-18T03:43:48.174Z,32.81
2023-04-18T03:44:48.254Z,32.81
2023-04-18T03:45:48.380Z,32.82
2023-04-18T03:46:48.393Z,32.79
2023-04-18T03:47:48.556Z,32.79
2023-04-18T03:48:48.525Z,32.84
2023-04-18T03:49:48.590Z,32.81
2023-04-18T03:50:48.672Z,32.81
2023-04-18T03:51:48.735Z,32.73
2023-04-18T03:52:48.805Z,32.78
2023-04-18T03:53:48.842Z,32.75
2023-04-18T03:54:48.902Z,32.76
2023-04-18T03:55:48.956Z,32.72
2023-04-18T03:56:49.005Z,32.73
2023-04-18T03:57:49.071Z,32.73
2023-04-18T03:58:49.112Z,32.76
2023-04-18T03:59:49.195Z,32.81
2023-04-18T04:00:49.235Z,32.75
2023-04-18T04:01:49.354Z,32.69
2023-04-18T04:02:49.443Z,32.72
2023-04-18T04:03:49.624Z,32.78
2023-04-18T04:04:49.590Z,32.72
2023-04-18T04:05:49.605Z,32.64
2023-04-18T04:06:49.681Z,32.69
2023-04-18T04:07:49.748Z,32.70
2023-04-18T04:08:49.821Z,32.72
2023-04-18T04:09:49.887Z,32.72
2023-04-18T04:10:50.890Z,32.70
2023-04-18T04:11:50.026Z,32.72
2023-04-18T04:12:50.077Z,32.70
2023-04-18T04:13:50.149Z,32.69
2023-04-18T04:14:50.366Z,32.69
2023-04-18T04:15:50.302Z,32.68
2023-04-18T04:16:50.401Z,32.69
2023-04-18T04:17:50.503Z,32.72
2023-04-18T04:18:50.502Z,32.70
2023-04-18T04:19:50.574Z,32.69
2023-04-18T04:20:50.637Z,32.63
2023-04-18T04:21:50.722Z,32.68
2023-04-18T04:22:50.795Z,32.63
2023-04-18T04:23:50.845Z,32.64
2023-04-18T04:24:50.916Z,32.68
2023-04-18T04:25:50.971Z,32.61
2023-04-18T04:26:51.052Z,32.65
2023-04-18T04:27:51.129Z,32.60
2023-04-18T04:28:51.212Z,32.66
2023-04-18T04:29:51.281Z,32.66
2023-04-18T04:30:51.362Z,32.60
2023-04-18T04:31:51.461Z,32.63
2023-04-18T04:32:51.572Z,32.66
2023-04-18T04:33:51.573Z,32.66
2023-04-18T04:34:51.632Z,32.63
2023-04-18T04:35:51.711Z,32.60
2023-04-18T04:36:51.770Z,32.62
2023-04-18T04:37:51.839Z,32.60
2023-04-18T04:38:51.922Z,32.54
2023-04-18T04:39:51.982Z,32.60
2023-04-18T04:40:52.064Z,32.62
2023-04-18T04:41:52.146Z,32.60
2023-04-18T04:42:52.199Z,32.55
2023-04-18T04:43:52.280Z,32.60
2023-04-18T04:44:52.365Z,32.60
2023-04-18T04:45:52.451Z,32.61
2023-04-18T04:46:52.490Z,32.59
2023-04-18T04:47:52.613Z,32.60
2023-04-18T04:48:53.397Z,32.59
2023-04-18T04:49:52.705Z,32.57
2023-04-18T04:50:52.790Z,32.57
2023-04-18T04:51:52.844Z,32.55
2023-04-18T04:52:52.925Z,32.55
2023-04-18T04:53:52.987Z,32.60
2023-04-18T04:54:53.066Z,32.52
2023-04-18T04:55:53.144Z,32.59
2023-04-18T04:56:53.214Z,32.56
2023-04-18T04:57:53.288Z,32.57
2023-04-18T04:58:53.349Z,32.56
2023-04-18T04:59:53.443Z,32.55
2023-04-18T05:00:53.547Z,32.50
2023-04-18T05:01:53.651Z,32.51
2023-04-18T05:02:53.805Z,32.53
2023-04-18T05:03:53.892Z,32.56
2023-04-18T05:04:53.801Z,32.59
2023-04-18T05:05:53.882Z,32.68
2023-04-18T05:06:53.952Z,32.57
2023-04-18T05:07:54.029Z,32.49
2023-04-18T05:08:54.204Z,32.59
2023-04-18T05:09:54.173Z,32.59
2023-04-18T05:10:54.252Z,32.56
2023-04-18T05:11:54.319Z,32.51
2023-04-18T05:12:54.425Z,32.53
2023-04-18T05:13:54.482Z,32.56
2023-04-18T05:14:54.548Z,32.54
2023-04-18T05:15:54.627Z,32.91
2023-04-18T05:16:54.711Z,33.14
2023-04-18T05:17:54.898Z,33.25
2023-04-18T05:18:54.859Z,33.23
2023-04-18T05:19:54.934Z,33.39
2023-04-18T05:20:55.025Z,33.43
2023-04-18T05:21:55.063Z,33.31
2023-04-18T05:22:55.131Z,33.40
2023-04-18T05:23:55.197Z,33.25
2023-04-18T05:24:55.243Z,33.22
2023-04-18T05:25:55.300Z,33.25
2023-04-18T05:26:55.892Z,33.25
2023-04-18T05:27:55.408Z,33.22
2023-04-18T05:28:55.460Z,33.33
2023-04-18T05:29:55.521Z,33.36
2023-04-18T05:30:55.625Z,33.31
2023-04-18T05:31:55.665Z,33.27
2023-04-18T05:32:55.758Z,33.27
2023-04-18T05:33:56.398Z,33.02
2023-04-18T05:34:55.829Z,32.95
2023-04-18T05:35:55.900Z,33.00
2023-04-18T05:36:55.959Z,33.00
2023-04-18T05:37:56.011Z,32.61
2023-04-18T05:38:56.078Z,32.73
2023-04-18T05:39:56.614Z,32.74
2023-04-18T05:40:56.249Z,32.80
2023-04-18T05:41:56.269Z,33.07
2023-04-18T05:42:56.348Z,33.14
2023-04-18T05:44:04.873Z,33.19
2023-04-18T05:44:57.411Z,33.16
2023-04-18T05:45:57.746Z,33.11
2023-04-18T05:46:56.431Z,33.08
2023-04-18T05:47:56.495Z,33.07
2023-04-18T05:48:56.421Z,33.04
2023-04-18T05:49:56.421Z,33.02
2023-04-18T05:50:56.436Z,32.99
2023-04-18T05:51:56.445Z,32.98
2023-04-18T05:52:56.468Z,32.90
2023-04-18T05:53:56.535Z,32.94
2023-04-18T05:54:56.596Z,32.90
2023-04-18T05:55:56.666Z,32.87
2023-04-18T05:56:56.737Z,32.88
2023-04-18T05:57:56.814Z,32.90
2023-04-18T05:58:56.866Z,32.87
2023-04-18T05:59:56.935Z,33.16
2023-04-18T06:00:57.025Z,32.69
2023-04-18T06:01:57.122Z,32.78
2023-04-18T06:02:57.983Z,32.84
2023-04-18T06:03:57.453Z,32.94
2023-04-18T06:04:57.392Z,33.15
2023-04-18T06:05:57.534Z,33.09
2023-04-18T06:06:57.441Z,33.16
2023-04-18T06:07:57.508Z,33.06
2023-04-18T06:08:57.576Z,33.06
2023-04-18T06:09:57.654Z,32.99
2023-04-18T06:10:57.713Z,32.95
2023-04-18T06:11:57.796Z,32.99
2023-04-18T06:12:57.854Z,32.90
2023-04-18T06:13:57.910Z,32.97
2023-04-18T06:14:57.973Z,32.90
2023-04-18T06:15:58.113Z,32.90
2023-04-18T06:16:58.113Z,32.87
2023-04-18T06:17:58.235Z,32.90
2023-04-18T06:19:00.952Z,32.86
2023-04-18T06:19:58.269Z,32.84
2023-04-18T06:20:58.265Z,32.83
2023-04-18T06:21:58.307Z,32.83
2023-04-18T06:22:58.895Z,33.16
2023-04-18T06:23:59.433Z,33.52
2023-04-18T06:24:59.389Z,33.66
2023-04-18T06:25:58.526Z,33.59
2023-04-18T06:26:59.400Z,33.83
2023-04-18T06:27:58.616Z,33.87
2023-04-18T06:28:58.750Z,33.61
2023-04-18T06:29:58.800Z,33.46
2023-04-18T06:30:58.824Z,33.59
2023-04-18T06:31:58.938Z,33.55
2023-04-18T06:32:59.026Z,33.71
2023-04-18T06:33:59.024Z,33.75
2023-04-18T06:34:59.073Z,33.86
2023-04-18T06:35:59.144Z,33.86
2023-04-18T06:36:59.178Z,33.82
2023-04-18T06:37:59.314Z,33.75
2023-04-18T06:38:59.305Z,33.75
2023-04-18T06:39:59.373Z,33.68
2023-04-18T06:40:59.421Z,33.59
2023-04-18T06:41:59.472Z,33.61
2023-04-18T06:42:59.540Z,33.51
2023-04-18T06:44:04.058Z,33.55
2023-04-18T06:45:00.695Z,33.55
2023-04-18T06:45:59.646Z,33.61
2023-04-18T06:46:59.607Z,33.58
2023-04-18T06:47:59.664Z,33.66
2023-04-18T06:48:59.625Z,33.49
2023-04-18T06:49:59.642Z,33.63
2023-04-18T06:50:59.634Z,33.62
2023-04-18T06:51:59.647Z,33.59
2023-04-18T06:52:59.641Z,33.58
2023-04-18T06:53:59.693Z,33.59
2023-04-18T06:54:59.742Z,33.56
2023-04-18T06:55:59.797Z,33.54
2023-04-18T06:56:59.858Z,33.56
2023-04-18T06:57:59.920Z,33.54
2023-04-18T06:58:59.999Z,33.54
2023-04-18T07:00:00.068Z,33.49
2023-04-18T07:01:00.185Z,33.51
2023-04-18T07:02:00.250Z,33.51
2023-04-18T07:03:00.426Z,33.54
2023-04-18T07:04:00.485Z,33.51
2023-04-18T07:05:00.395Z,33.52
2023-04-18T07:06:00.473Z,33.44
2023-04-18T07:07:00.526Z,33.47
2023-04-18T07:08:00.595Z,33.44
2023-04-18T07:09:00.663Z,33.41
2023-04-18T07:10:00.733Z,33.36
2023-04-18T07:11:00.793Z,33.38
2023-04-18T07:12:00.877Z,33.42
2023-04-18T07:13:00.931Z,33.39
2023-04-18T07:14:01.017Z,33.55
2023-04-18T07:15:01.895Z,34.11
2023-04-18T07:16:01.155Z,34.47
2023-04-18T07:17:02.899Z,34.65
2023-04-18T07:18:02.695Z,35.26
2023-04-18T07:19:01.455Z,36.38
2023-04-18T07:20:01.421Z,36.33
2023-04-18T07:21:01.893Z,37.26
2023-04-18T07:22:01.419Z,36.80
2023-04-18T07:23:01.495Z,36.66
2023-04-18T07:24:02.311Z,36.31
2023-04-18T07:25:02.439Z,36.45
2023-04-18T07:26:01.608Z,36.69
2023-04-18T07:27:02.456Z,35.85
2023-04-18T07:28:04.508Z,35.21
2023-04-18T07:29:01.776Z,34.55
2023-04-18T07:30:02.750Z,34.32
2023-04-18T07:31:02.336Z,33.87
2023-04-18T07:32:01.764Z,33.80
2023-04-18T07:33:03.407Z,33.93
2023-04-18T07:34:01.739Z,34.09
2023-04-18T07:35:01.755Z,34.51
2023-04-18T07:36:01.768Z,34.63
2023-04-18T07:37:01.747Z,34.53
2023-04-18T07:38:01.758Z,34.60
2023-04-18T07:39:01.766Z,34.63
2023-04-18T07:40:01.797Z,34.59
2023-04-18T07:41:01.890Z,34.56
2023-04-18T07:42:01.902Z,34.52
2023-04-18T07:43:01.965Z,34.39
2023-04-18T07:44:02.075Z,34.30
2023-04-18T07:45:02.177Z,34.31
2023-04-18T07:46:02.203Z,34.36
2023-04-18T07:47:03.001Z,34.38
2023-04-18T07:48:02.354Z,34.30
2023-04-18T07:49:02.368Z,34.34
2023-04-18T07:50:02.940Z,34.32
2023-04-18T07:51:03.360Z,34.30
2023-04-18T07:52:02.362Z,34.22
2023-04-18T07:53:02.395Z,34.25
2023-04-18T07:54:02.384Z,34.22
2023-04-18T07:55:03.401Z,34.20
2023-04-18T07:56:02.375Z,34.20
2023-04-18T07:57:03.324Z,34.17
2023-04-18T07:58:02.373Z,34.18
2023-04-18T07:59:02.891Z,34.14
2023-04-18T08:00:04.189Z,34.17
2023-04-18T08:01:02.922Z,34.12
2023-04-18T08:02:02.437Z,34.17
2023-04-18T08:03:02.540Z,34.19
2023-04-18T08:04:02.622Z,34.10
2023-04-18T08:05:02.900Z,34.18
2023-04-18T08:06:02.476Z,34.19
2023-04-18T08:07:02.434Z,34.18
2023-04-18T08:08:06.362Z,34.15
2023-04-18T08:09:02.422Z,34.15
2023-04-18T08:10:02.427Z,34.18
2023-04-18T08:11:02.441Z,34.50
2023-04-18T08:12:02.417Z,34.62
2023-04-18T08:13:02.897Z,34.78
2023-04-18T08:14:02.442Z,35.10
2023-04-18T08:15:02.440Z,35.02
2023-04-18T08:16:02.506Z,35.18
2023-04-18T08:17:04.415Z,35.86
2023-04-18T08:18:02.524Z,36.48
2023-04-18T08:19:02.459Z,37.04
2023-04-18T08:20:02.468Z,37.33
2023-04-18T08:21:02.861Z,37.52
2023-04-18T08:22:02.476Z,37.40
2023-04-18T08:23:08.581Z,37.21
2023-04-18T08:24:02.479Z,36.98
2023-04-18T08:25:05.386Z,37.01
2023-04-18T08:26:02.486Z,36.81
2023-04-18T08:27:03.398Z,36.72
2023-04-18T08:28:04.531Z,36.71
2023-04-18T08:29:02.564Z,36.38
2023-04-18T08:30:02.500Z,35.88
2023-04-18T08:31:04.413Z,35.64
2023-04-18T08:32:02.593Z,35.68
2023-04-18T08:33:02.558Z,35.70
2023-04-18T08:34:04.499Z,35.66
2023-04-18T08:35:02.818Z,35.45
2023-04-18T08:36:02.830Z,35.47
2023-04-18T08:37:02.873Z,35.23
2023-04-18T08:38:02.931Z,35.04
2023-04-18T08:39:02.940Z,34.97
2023-04-18T08:40:02.951Z,34.69
2023-04-18T08:41:03.030Z,34.63
2023-04-18T08:42:03.049Z,34.52
2023-04-18T08:43:06.419Z,34.60
2023-04-18T08:44:03.069Z,34.60
2023-04-18T08:45:03.062Z,34.64
2023-04-18T08:46:03.063Z,34.48
2023-04-18T08:47:04.913Z,34.48
2023-04-18T08:48:03.191Z,34.48
2023-04-18T08:49:03.054Z,34.46
2023-04-18T08:50:03.063Z,34.38
2023-04-18T08:51:03.069Z,34.41
2023-04-18T08:52:03.076Z,34.38
2023-04-18T08:53:03.999Z,34.35
2023-04-18T08:54:03.064Z,34.34
2023-04-18T08:55:03.079Z,34.30
2023-04-18T08:56:05.971Z,34.30
2023-04-18T08:57:05.968Z,34.30
2023-04-18T08:58:03.116Z,34.27
2023-04-18T08:59:03.120Z,34.23
2023-04-18T09:00:03.091Z,34.16
2023-04-18T09:01:03.266Z,34.15
2023-04-18T09:02:03.163Z,34.06
2023-04-18T09:03:03.298Z,34.08
2023-04-18T09:04:03.193Z,34.03
2023-04-18T09:05:09.111Z,33.97
2023-04-18T09:06:03.176Z,33.98
2023-04-18T09:07:03.109Z,34.00
2023-04-18T09:08:05.887Z,34.00
2023-04-18T09:09:03.264Z,33.94
2023-04-18T09:10:03.122Z,34.02
2023-04-18T09:11:03.139Z,34.14
2023-04-18T09:12:03.194Z,34.01
2023-04-18T09:13:03.407Z,33.91
2023-04-18T09:14:03.909Z,33.94
2023-04-18T09:15:03.400Z,33.88
2023-04-18T09:16:03.155Z,34.15
2023-04-18T09:17:03.197Z,34.63
2023-04-18T09:18:03.471Z,34.89
2023-04-18T09:19:04.225Z,34.80
2023-04-18T09:20:03.194Z,34.79
2023-04-18T09:21:03.899Z,34.83
2023-04-18T09:22:03.850Z,35.62
2023-04-18T09:23:03.893Z,35.64
2023-04-18T09:24:03.223Z,35.49
2023-04-18T09:25:03.359Z,35.43
2023-04-18T09:26:03.263Z,35.20
2023-04-18T09:27:03.284Z,35.17
2023-04-18T09:28:03.265Z,35.08
2023-04-18T09:29:03.305Z,35.00
2023-04-18T09:30:03.341Z,34.80
2023-04-18T09:31:03.336Z,34.59
2023-04-18T09:32:03.315Z,34.36
2023-04-18T09:33:03.311Z,34.38
2023-04-18T09:34:03.353Z,34.19
2023-04-18T09:35:04.571Z,34.09
2023-04-18T09:36:03.492Z,31.18
2023-04-18T09:37:03.593Z,29.59
2023-04-18T09:38:03.562Z,29.28
2023-04-18T09:39:03.563Z,29.41
2023-04-18T09:40:03.559Z,28.82
2023-04-18T09:41:03.688Z,28.06
2023-04-18T09:42:03.567Z,28.05
2023-04-18T09:43:03.564Z,28.38
2023-04-18T09:44:03.586Z,28.06
2023-04-18T09:45:03.620Z,28.25
2023-04-18T09:46:07.420Z,28.41
2023-04-18T09:47:03.610Z,28.39
2023-04-18T09:48:03.731Z,28.41
2023-04-18T09:49:03.642Z,28.31
2023-04-18T09:50:03.961Z,28.81
2023-04-18T09:51:04.420Z,28.96
2023-04-18T09:52:03.658Z,29.04
2023-04-18T09:53:03.659Z,29.31
2023-04-18T09:54:03.662Z,30.40
2023-04-18T09:55:03.682Z,30.51
2023-04-18T09:56:04.690Z,30.60
2023-04-18T09:57:03.874Z,30.70
2023-04-18T09:58:03.820Z,30.78
2023-04-18T09:59:03.672Z,30.84
2023-04-18T10:00:03.694Z,30.96
2023-04-18T10:01:03.760Z,31.03
2023-04-18T10:02:04.496Z,31.04
2023-04-18T10:03:03.744Z,31.14
2023-04-18T10:04:03.766Z,31.17
2023-04-18T10:05:03.808Z,31.12
2023-04-18T10:06:04.454Z,31.10
2023-04-18T10:07:03.895Z,31.11
2023-04-18T10:08:03.955Z,31.10
2023-04-18T10:09:04.012Z,31.33
2023-04-18T10:10:04.097Z,31.42
2023-04-18T10:11:04.079Z,31.72
2023-04-18T10:12:04.088Z,31.46
2023-04-18T10:13:04.162Z,31.46
2023-04-18T10:14:04.854Z,31.87
2023-04-18T10:15:04.147Z,32.51
2023-04-18T10:16:04.145Z,32.90
2023-04-18T10:17:04.912Z,32.65
2023-04-18T10:18:06.533Z,32.77
2023-04-18T10:19:04.157Z,32.72
2023-04-18T10:20:04.190Z,32.64
2023-04-18T10:21:04.294Z,32.66
2023-04-18T10:22:04.329Z,32.42
2023-04-18T10:23:04.394Z,32.26
2023-04-18T10:24:05.387Z,32.32
2023-04-18T10:25:04.494Z,32.23
2023-04-18T10:26:06.462Z,32.23
2023-04-18T10:27:04.400Z,32.28
2023-04-18T10:28:04.416Z,32.35
2023-04-18T10:29:04.415Z,32.37
2023-04-18T10:30:04.421Z,32.39
2023-04-18T10:31:04.966Z,32.45
2023-04-18T10:32:04.445Z,32.45
2023-04-18T10:34:05.905Z,32.48
2023-04-18T10:35:05.593Z,32.46
2023-04-18T10:36:04.579Z,32.45
2023-04-18T10:37:04.585Z,32.46
2023-04-18T10:38:04.589Z,32.52
2023-04-18T10:39:04.590Z,32.51
2023-04-18T10:40:04.577Z,32.51
2023-04-18T10:41:04.579Z,32.54
2023-04-18T10:42:04.593Z,32.66
2023-04-18T10:43:04.624Z,32.65
2023-04-18T10:44:05.364Z,32.58
2023-04-18T10:45:04.769Z,32.63
2023-04-18T10:46:04.855Z,32.63
2023-04-18T10:47:04.947Z,32.63
2023-04-18T10:48:05.037Z,32.59
2023-04-18T10:49:05.083Z,32.61
2023-04-18T10:50:06.804Z,32.74
2023-04-18T10:51:05.206Z,32.66
2023-04-18T10:52:05.264Z,32.75
2023-04-18T10:53:05.332Z,32.55
2023-04-18T10:54:05.370Z,32.57
2023-04-18T10:55:05.462Z,32.58
2023-04-18T10:56:05.490Z,32.55
2023-04-18T10:57:05.549Z,32.55
2023-04-18T10:58:05.609Z,32.58
2023-04-18T10:59:05.631Z,32.78
2023-04-18T11:00:05.651Z,32.73
2023-04-18T11:01:06.022Z,32.90
2023-04-18T11:02:05.794Z,33.06
2023-04-18T11:03:05.977Z,33.36
2023-04-18T11:04:06.005Z,33.13
2023-04-18T11:05:05.848Z,33.63
2023-04-18T11:06:05.958Z,33.87
2023-04-18T11:07:05.925Z,33.54
2023-04-18T11:08:05.903Z,33.44
2023-04-18T11:09:05.908Z,33.32
2023-04-18T11:10:05.911Z,33.23
2023-04-18T11:11:05.944Z,33.18
2023-04-18T11:12:05.997Z,33.06
2023-04-18T11:13:06.088Z,33.11
2023-04-18T11:14:06.133Z,33.06
2023-04-18T11:15:06.195Z,33.03
2023-04-18T11:16:06.298Z,33.53
2023-04-18T11:17:06.336Z,33.35
2023-04-18T11:18:06.445Z,33.26
2023-04-18T11:19:06.480Z,33.22
2023-04-18T11:20:06.559Z,33.28
2023-04-18T11:21:06.627Z,33.44
2023-04-18T11:22:06.675Z,33.60
2023-04-18T11:23:06.773Z,33.80
2023-04-18T11:24:06.816Z,34.40
2023-04-18T11:25:06.860Z,34.88
2023-04-18T11:26:06.950Z,34.98
2023-04-18T11:27:06.990Z,35.09
2023-04-18T11:28:07.045Z,35.51
2023-04-18T11:29:07.127Z,35.61
2023-04-18T11:30:07.152Z,35.43
2023-04-18T11:31:07.213Z,35.43
2023-04-18T11:32:07.347Z,35.20
2023-04-18T11:33:07.726Z,34.93
2023-04-18T11:34:07.443Z,34.90
2023-04-18T11:35:07.488Z,35.01
2023-04-18T11:36:07.513Z,35.17
2023-04-18T11:37:07.591Z,35.08
2023-04-18T11:38:07.650Z,36.10
2023-04-18T11:39:07.680Z,35.70
2023-04-18T11:40:07.725Z,35.93
2023-04-18T11:41:07.842Z,34.99
2023-04-18T11:42:07.856Z,34.58
2023-04-18T11:43:07.921Z,34.36
2023-04-18T11:44:07.998Z,34.09
2023-04-18T11:45:08.046Z,33.94
2023-04-18T11:46:08.159Z,33.87
2023-04-18T11:47:08.185Z,34.12
2023-04-18T11:48:08.287Z,34.06
2023-04-18T11:49:08.467Z,34.21
2023-04-18T11:50:08.376Z,34.44
2023-04-18T11:51:08.441Z,34.03
2023-04-18T11:52:08.520Z,33.88
2023-04-18T11:53:08.612Z,33.87
2023-04-18T11:54:08.631Z,34.01
2023-04-18T11:55:08.696Z,34.21
2023-04-18T11:56:08.769Z,34.19
2023-04-18T11:57:08.833Z,34.20
2023-04-18T11:58:08.902Z,34.09
2023-04-18T11:59:08.994Z,34.03
2023-04-18T12:00:09.033Z,34.09
2023-04-18T12:01:09.091Z,34.27
2023-04-18T12:02:16.025Z,34.13
2023-04-18T12:03:13.342Z,34.15
2023-04-18T12:04:09.386Z,34.09
2023-04-18T12:05:09.610Z,34.14
2023-04-18T12:06:09.313Z,34.02
2023-04-18T12:07:09.162Z,33.82
2023-04-18T12:08:09.177Z,33.79
2023-04-18T12:09:09.165Z,33.71
2023-04-18T12:10:09.159Z,33.69
2023-04-18T12:11:09.167Z,33.66
2023-04-18T12:12:09.166Z,33.65
2023-04-18T12:13:09.183Z,33.68
2023-04-18T12:14:09.175Z,33.61
2023-04-18T12:15:09.249Z,33.61
2023-04-18T12:16:09.342Z,33.58
2023-04-18T12:17:09.328Z,33.52
2023-04-18T12:18:09.446Z,33.54
2023-04-18T12:19:09.471Z,33.54
2023-04-18T12:20:09.529Z,33.56
2023-04-18T12:21:09.698Z,33.52
2023-04-18T12:22:09.648Z,33.58
2023-04-18T12:23:09.698Z,33.61
2023-04-18T12:24:09.783Z,33.61
2023-04-18T12:25:09.835Z,33.59
2023-04-18T12:26:09.911Z,33.62
2023-04-18T12:27:09.964Z,33.63
2023-04-18T12:28:10.033Z,33.65
2023-04-18T12:29:10.106Z,33.63
2023-04-18T12:30:10.187Z,33.62
2023-04-18T12:31:10.249Z,33.65
2023-04-18T12:32:10.325Z,33.65
2023-04-18T12:33:10.354Z,33.69
2023-04-18T12:34:10.411Z,33.73
2023-04-18T12:35:10.480Z,33.68
2023-04-18T12:36:10.557Z,33.62
2023-04-18T12:37:10.636Z,33.66
2023-04-18T12:38:10.649Z,33.67
2023-04-18T12:39:10.733Z,33.71
2023-04-18T12:40:10.781Z,33.69
2023-04-18T12:41:10.846Z,33.66
2023-04-18T12:42:10.917Z,33.70
2023-04-18T12:43:10.954Z,33.66
2023-04-18T12:44:11.115Z,33.71
2023-04-18T12:45:11.079Z,33.65
2023-04-18T12:46:11.182Z,33.66
2023-04-18T12:47:11.435Z,33.69
2023-04-18T12:48:11.251Z,33.69
2023-04-18T12:49:11.319Z,33.69
2023-04-18T12:50:11.677Z,33.68
2023-04-18T12:51:11.429Z,33.63
2023-04-18T12:52:11.492Z,33.65
2023-04-18T12:53:11.702Z,33.61
2023-04-18T12:54:11.752Z,33.63